Mary Esther, Florida
Current Conditions -  °F | °C
As of 6:56 AM on Thursday 23 Oct 2014 (Local Time) from KQBL Reporting Station
Scattered Clouds Scattered Clouds  
Wind Chill: 50°   Ceiling: Unl
Heat Index: 50°   Visibility: 10mi
Dew Point: 45°   Wind: 5mph
Humidity: 81%   Direction: 360°N
Pressure: 30.09"   Gusts: NA
Location:  30.41°N, 86.66°W
Report Text: KQBL 231156Z AUTO 36004KT 10SM SCT240 10/07 A3009 RMK AO2 SLP196 T01020070 10131 20101
Loading
Personal Weather Stations






























Interactive Weather Map
Tropical Storm Tracking
New forecast layout! Learn more

10-Day Weather Forecast

Advertisements
Track Severe Weather on mobile